sensor_id;sensor_type;location;lat;lon;timestamp;P1;P2;P0
75187;PMS7003;63762;51.334;22.108;2023-04-09T00:02:30;5;5;2
75187;PMS7003;63762;51.334;22.108;2023-04-09T00:12:37;6;4;3
75187;PMS7003;63762;51.334;22.108;2023-04-09T00:22:44;2;2;2
75187;PMS7003;63762;51.334;22.108;2023-04-09T00:32:51;6;5;5
75187;PMS7003;63762;51.334;22.108;2023-04-09T00:42:59;2;2;1
75187;PMS7003;63762;51.334;22.108;2023-04-09T00:53:06;4;1;0
75187;PMS7003;63762;51.334;22.108;2023-04-09T01:03:13;3;2;2
75187;PMS7003;63762;51.334;22.108;2023-04-09T01:13:41;2;1;1
75187;PMS7003;63762;51.334;22.108;2023-04-09T01:33:47;0;0;0
75187;PMS7003;63762;51.334;22.108;2023-04-09T01:43:49;2;2;1
75187;PMS7003;63762;51.334;22.108;2023-04-09T01:53:51;2;2;1
75187;PMS7003;63762;51.334;22.108;2023-04-09T02:03:57;1;1;1
75187;PMS7003;63762;51.334;22.108;2023-04-09T02:14:03;5;1;1
75187;PMS7003;63762;51.334;22.108;2023-04-09T02:24:10;1;1;1
75187;PMS7003;63762;51.334;22.108;2023-04-09T02:34:17;4;0;0
75187;PMS7003;63762;51.334;22.108;2023-04-09T02:44:24;7;4;2
75187;PMS7003;63762;51.334;22.108;2023-04-09T02:54:31;4;2;1
75187;PMS7003;63762;51.334;22.108;2023-04-09T03:04:38;6;3;2
75187;PMS7003;63762;51.334;22.108;2023-04-09T03:14:46;6;5;3
75187;PMS7003;63762;51.334;22.108;2023-04-09T03:24:53;5;4;2
75187;PMS7003;63762;51.334;22.108;2023-04-09T03:35:00;3;3;2
75187;PMS7003;63762;51.334;22.108;2023-04-09T03:45:08;6;2;1
75187;PMS7003;63762;51.334;22.108;2023-04-09T03:55:14;3;1;1
75187;PMS7003;63762;51.334;22.108;2023-04-09T04:05:22;6;2;1
75187;PMS7003;63762;51.334;22.108;2023-04-09T04:15:28;2;2;2
75187;PMS7003;63762;51.334;22.108;2023-04-09T04:25:35;4;3;3
75187;PMS7003;63762;51.334;22.108;2023-04-09T04:35:43;4;2;2
75187;PMS7003;63762;51.334;22.108;2023-04-09T04:45:50;3;3;2
75187;PMS7003;63762;51.334;22.108;2023-04-09T04:55:57;2;2;1
75187;PMS7003;63762;51.334;22.108;2023-04-09T05:06:04;2;2;2
75187;PMS7003;63762;51.334;22.108;2023-04-09T05:16:15;3;3;1
75187;PMS7003;63762;51.334;22.108;2023-04-09T05:26:21;3;3;2
75187;PMS7003;63762;51.334;22.108;2023-04-09T05:36:25;0;0;0
75187;PMS7003;63762;51.334;22.108;2023-04-09T05:46:33;3;2;1
75187;PMS7003;63762;51.334;22.108;2023-04-09T05:56:41;3;1;1
75187;PMS7003;63762;51.334;22.108;2023-04-09T06:06:47;6;2;2
75187;PMS7003;63762;51.334;22.108;2023-04-09T06:16:54;10;10;7
75187;PMS7003;63762;51.334;22.108;2023-04-09T06:27:01;7;5;3
75187;PMS7003;63762;51.334;22.108;2023-04-09T06:37:08;3;3;3
75187;PMS7003;63762;51.334;22.108;2023-04-09T06:47:15;1;1;1
75187;PMS7003;63762;51.334;22.108;2023-04-09T06:57:23;4;3;2
75187;PMS7003;63762;51.334;22.108;2023-04-09T07:07:30;1;0;0
75187;PMS7003;63762;51.334;22.108;2023-04-09T07:17:37;1;1;1
75187;PMS7003;63762;51.334;22.108;2023-04-09T07:27:44;2;1;1
75187;PMS7003;63762;51.334;22.108;2023-04-09T07:37:51;0;0;0
75187;PMS7003;63762;51.334;22.108;2023-04-09T07:47:59;9;7;4
75187;PMS7003;63762;51.334;22.108;2023-04-09T07:58:05;8;6;4
75187;PMS7003;63762;51.334;22.108;2023-04-09T08:08:12;1;1;1
75187;PMS7003;63762;51.334;22.108;2023-04-09T08:18:19;1;1;0
75187;PMS7003;63762;51.334;22.108;2023-04-09T08:28:27;0;0;0
75187;PMS7003;63762;51.334;22.108;2023-04-09T08:38:34;2;2;1
75187;PMS7003;63762;51.334;22.108;2023-04-09T08:48:42;2;0;0
75187;PMS7003;63762;51.334;22.108;2023-04-09T08:58:48;4;1;1
75187;PMS7003;63762;51.334;22.108;2023-04-09T09:19:08;2;0;0
75187;PMS7003;63762;51.334;22.108;2023-04-09T09:29:15;1;1;0
75187;PMS7003;63762;51.334;22.108;2023-04-09T09:39:16;3;0;0
75187;PMS7003;63762;51.334;22.108;2023-04-09T09:49:24;2;2;1
75187;PMS7003;63762;51.334;22.108;2023-04-09T09:59:31;2;2;1
75187;PMS7003;63762;51.334;22.108;2023-04-09T10:09:38;2;2;1
75187;PMS7003;63762;51.334;22.108;2023-04-09T10:19:46;1;1;1
75187;PMS7003;63762;51.334;22.108;2023-04-09T10:29:54;0;0;0
75187;PMS7003;63762;51.334;22.108;2023-04-09T10:39:59;0;0;0
75187;PMS7003;63762;51.334;22.108;2023-04-09T11:00:19;0;0;0
75187;PMS7003;63762;51.334;22.108;2023-04-09T11:10:21;4;0;0
75187;PMS7003;63762;51.334;22.108;2023-04-09T11:20:28;7;6;5
75187;PMS7003;63762;51.334;22.108;2023-04-09T11:33:46;1;1;1
75187;PMS7003;63762;51.334;22.108;2023-04-09T11:43:50;4;3;2
75187;PMS7003;63762;51.334;22.108;2023-04-09T11:54:00;1;1;1
75187;PMS7003;63762;51.334;22.108;2023-04-09T12:04:05;4;1;0
75187;PMS7003;63762;51.334;22.108;2023-04-09T12:14:12;4;1;1
75187;PMS7003;63762;51.334;22.108;2023-04-09T12:24:19;0;0;0
75187;PMS7003;63762;51.334;22.108;2023-04-09T12:34:26;6;3;3
75187;PMS7003;63762;51.334;22.108;2023-04-09T12:44:32;2;2;1
75187;PMS7003;63762;51.334;22.108;2023-04-09T12:54:40;6;0;0
75187;PMS7003;63762;51.334;22.108;2023-04-09T13:04:47;3;3;2
75187;PMS7003;63762;51.334;22.108;2023-04-09T13:14:54;0;0;0
75187;PMS7003;63762;51.334;22.108;2023-04-09T13:25:02;0;0;0
75187;PMS7003;63762;51.334;22.108;2023-04-09T13:35:09;0;0;0
75187;PMS7003;63762;51.334;22.108;2023-04-09T13:45:15;0;0;0
75187;PMS7003;63762;51.334;22.108;2023-04-09T13:55:22;2;2;2
75187;PMS7003;63762;51.334;22.108;2023-04-09T14:05:29;2;2;2
75187;PMS7003;63762;51.334;22.108;2023-04-09T14:15:37;2;2;1
75187;PMS7003;63762;51.334;22.108;2023-04-09T14:25:44;1;1;0
75187;PMS7003;63762;51.334;22.108;2023-04-09T14:35:51;1;0;0
75187;PMS7003;63762;51.334;22.108;2023-04-09T14:45:58;2;2;1
75187;PMS7003;63762;51.334;22.108;2023-04-09T14:56:05;4;2;2
75187;PMS7003;63762;51.334;22.108;2023-04-09T15:06:12;1;1;1
75187;PMS7003;63762;51.334;22.108;2023-04-09T15:16:23;0;0;0
75187;PMS7003;63762;51.334;22.108;2023-04-09T15:26:27;0;0;0
75187;PMS7003;63762;51.334;22.108;2023-04-09T15:36:34;10;1;1
75187;PMS7003;63762;51.334;22.108;2023-04-09T15:46:41;3;3;2
75187;PMS7003;63762;51.334;22.108;2023-04-09T15:56:48;3;1;1
75187;PMS7003;63762;51.334;22.108;2023-04-09T16:06:55;1;1;1
75187;PMS7003;63762;51.334;22.108;2023-04-09T16:17:02;0;0;0
75187;PMS7003;63762;51.334;22.108;2023-04-09T16:27:09;3;3;3
75187;PMS7003;63762;51.334;22.108;2023-04-09T16:37:17;1;1;1
75187;PMS7003;63762;51.334;22.108;2023-04-09T16:47:23;7;5;4
75187;PMS7003;63762;51.334;22.108;2023-04-09T16:57:31;30;16;10
75187;PMS7003;63762;51.334;22.108;2023-04-09T17:07:38;30;24;17
75187;PMS7003;63762;51.334;22.108;2023-04-09T17:17:45;29;23;13
75187;PMS7003;63762;51.334;22.108;2023-04-09T17:27:52;21;17;10
75187;PMS7003;63762;51.334;22.108;2023-04-09T17:38:00;11;11;8
75187;PMS7003;63762;51.334;22.108;2023-04-09T17:48:06;4;3;2
75187;PMS7003;63762;51.334;22.108;2023-04-09T17:58:13;5;5;5
75187;PMS7003;63762;51.334;22.108;2023-04-09T18:08:20;12;11;7
75187;PMS7003;63762;51.334;22.108;2023-04-09T18:18:28;18;14;11
75187;PMS7003;63762;51.334;22.108;2023-04-09T18:28:35;12;5;4
75187;PMS7003;63762;51.334;22.108;2023-04-09T18:38:42;10;8;5
75187;PMS7003;63762;51.334;22.108;2023-04-09T18:48:49;10;9;7
75187;PMS7003;63762;51.334;22.108;2023-04-09T18:58:56;15;9;8
75187;PMS7003;63762;51.334;22.108;2023-04-09T19:09:03;12;8;5
75187;PMS7003;63762;51.334;22.108;2023-04-09T19:19:10;8;6;3
75187;PMS7003;63762;51.334;22.108;2023-04-09T19:29:18;2;2;2
75187;PMS7003;63762;51.334;22.108;2023-04-09T19:39:25;11;11;7
75187;PMS7003;63762;51.334;22.108;2023-04-09T19:49:32;8;8;6
75187;PMS7003;63762;51.334;22.108;2023-04-09T19:59:39;7;7;6
75187;PMS7003;63762;51.334;22.108;2023-04-09T20:09:46;8;6;6
75187;PMS7003;63762;51.334;22.108;2023-04-09T20:19:53;30;23;15
75187;PMS7003;63762;51.334;22.108;2023-04-09T20:30:00;8;7;6
75187;PMS7003;63762;51.334;22.108;2023-04-09T20:40:09;3;3;3
75187;PMS7003;63762;51.334;22.108;2023-04-09T20:50:14;3;3;2
75187;PMS7003;63762;51.334;22.108;2023-04-09T21:00:22;9;8;5
75187;PMS7003;63762;51.334;22.108;2023-04-09T21:10:29;30;22;14
75187;PMS7003;63762;51.334;22.108;2023-04-09T21:20:36;5;4;2
75187;PMS7003;63762;51.334;22.108;2023-04-09T21:30:43;4;4;3
75187;PMS7003;63762;51.334;22.108;2023-04-09T21:40:51;6;6;4
75187;PMS7003;63762;51.334;22.108;2023-04-09T21:50:57;5;4;3
75187;PMS7003;63762;51.334;22.108;2023-04-09T22:01:04;18;16;10
75187;PMS7003;63762;51.334;22.108;2023-04-09T22:11:12;7;2;1
75187;PMS7003;63762;51.334;22.108;2023-04-09T22:21:19;4;4;4
75187;PMS7003;63762;51.334;22.108;2023-04-09T22:31:26;11;5;4
75187;PMS7003;63762;51.334;22.108;2023-04-09T22:41:33;3;3;2
75187;PMS7003;63762;51.334;22.108;2023-04-09T22:51:40;9;9;4
75187;PMS7003;63762;51.334;22.108;2023-04-09T23:01:47;4;4;3
75187;PMS7003;63762;51.334;22.108;2023-04-09T23:11:54;3;3;3
75187;PMS7003;63762;51.334;22.108;2023-04-09T23:22:01;4;1;1
75187;PMS7003;63762;51.334;22.108;2023-04-09T23:32:09;5;3;3
75187;PMS7003;63762;51.334;22.108;2023-04-09T23:42:16;9;3;3
75187;PMS7003;63762;51.334;22.108;2023-04-09T23:52:24;3;3;3
